sensor_id;sensor_type;location;lat;lon;timestamp;pressure;altitude;pressure_sealevel;temperature;humidity
79703;BME280;69172;52.352;5.006;2023-07-16T00:00:06;100731.28;;;17.03;73.02
79703;BME280;69172;52.352;5.006;2023-07-16T00:02:34;100724.16;;;16.96;72.95
79703;BME280;69172;52.352;5.006;2023-07-16T00:04:59;100719.72;;;16.92;73.62
79703;BME280;69172;52.352;5.006;2023-07-16T00:07:24;100719.63;;;16.89;72.54
79703;BME280;69172;52.352;5.006;2023-07-16T00:09:50;100718.59;;;16.84;71.57
79703;BME280;69172;52.352;5.006;2023-07-16T00:12:15;100723.72;;;16.81;71.28
79703;BME280;69172;52.352;5.006;2023-07-16T00:14:41;100733.28;;;16.82;71.40
79703;BME280;69172;52.352;5.006;2023-07-16T00:17:06;100724.53;;;16.80;70.32
79703;BME280;69172;52.352;5.006;2023-07-16T00:19:31;100720.38;;;16.85;69.50
79703;BME280;69172;52.352;5.006;2023-07-16T00:21:57;100720.19;;;16.79;69.99
79703;BME280;69172;52.352;5.006;2023-07-16T00:24:22;100719.41;;;16.81;69.45
79703;BME280;69172;52.352;5.006;2023-07-16T00:26:48;100719.44;;;16.83;69.62
79703;BME280;69172;52.352;5.006;2023-07-16T00:29:13;100715.03;;;16.80;69.17
79703;BME280;69172;52.352;5.006;2023-07-16T00:31:40;100716.81;;;16.81;69.21
79703;BME280;69172;52.352;5.006;2023-07-16T00:34:06;100716.72;;;16.78;69.59
79703;BME280;69172;52.352;5.006;2023-07-16T00:36:31;100717.59;;;16.79;68.22
79703;BME280;69172;52.352;5.006;2023-07-16T00:38:58;100708.19;;;16.82;67.59
79703;BME280;69172;52.352;5.006;2023-07-16T00:41:23;100708.19;;;16.82;67.73
79703;BME280;69172;52.352;5.006;2023-07-16T00:43:48;100717.72;;;16.83;67.99
79703;BME280;69172;52.352;5.006;2023-07-16T00:46:14;100705.63;;;16.84;67.14
79703;BME280;69172;52.352;5.006;2023-07-16T00:48:40;100715.97;;;16.82;67.46
79703;BME280;69172;52.352;5.006;2023-07-16T00:51:07;100715.91;;;16.81;67.45
79703;BME280;69172;52.352;5.006;2023-07-16T00:53:32;100716.81;;;16.81;68.13
79703;BME280;69172;52.352;5.006;2023-07-16T00:55:58;100705.41;;;16.76;68.38
79703;BME280;69172;52.352;5.006;2023-07-16T00:58:25;100713.16;;;16.75;68.29
79703;BME280;69172;52.352;5.006;2023-07-16T01:00:51;100715.75;;;16.75;68.14
79703;BME280;69172;52.352;5.006;2023-07-16T01:03:16;100718.44;;;16.78;67.12
79703;BME280;69172;52.352;5.006;2023-07-16T01:05:52;100725.41;;;16.79;67.08
79703;BME280;69172;52.352;5.006;2023-07-16T01:08:37;100724.59;;;16.81;67.51
79703;BME280;69172;52.352;5.006;2023-07-16T01:11:04;100713.31;;;16.81;67.86
79703;BME280;69172;52.352;5.006;2023-07-16T01:13:29;100724.63;;;16.83;67.58
79703;BME280;69172;52.352;5.006;2023-07-16T01:15:55;100722.91;;;16.83;68.13
79703;BME280;69172;52.352;5.006;2023-07-16T01:18:21;100732.56;;;16.87;67.71
79703;BME280;69172;52.352;5.006;2023-07-16T01:20:46;100723.31;;;16.97;66.53
79703;BME280;69172;52.352;5.006;2023-07-16T01:31:30;100726.25;;;17.09;66.77
79703;BME280;69172;52.352;5.006;2023-07-16T01:33:57;100734.88;;;17.08;66.79
79703;BME280;69172;52.352;5.006;2023-07-16T01:36:24;100726.03;;;17.01;66.60
79703;BME280;69172;52.352;5.006;2023-07-16T01:38:50;100717.31;;;16.99;67.07
79703;BME280;69172;52.352;5.006;2023-07-16T01:41:15;100737.09;;;16.94;67.35
79703;BME280;69172;52.352;5.006;2023-07-16T01:43:41;100724.00;;;16.91;67.96
79703;BME280;69172;52.352;5.006;2023-07-16T01:46:06;100730.81;;;16.86;67.73
79703;BME280;69172;52.352;5.006;2023-07-16T01:48:35;100729.81;;;16.83;68.15
79703;BME280;69172;52.352;5.006;2023-07-16T01:51:03;100729.88;;;16.84;68.29
79703;BME280;69172;52.352;5.006;2023-07-16T01:53:28;100737.50;;;16.78;67.97
79703;BME280;69172;52.352;5.006;2023-07-16T01:55:54;100724.50;;;16.78;68.12
79703;BME280;69172;52.352;5.006;2023-07-16T01:58:20;100733.03;;;16.74;68.82
79703;BME280;69172;52.352;5.006;2023-07-16T02:00:45;100727.84;;;16.74;68.72
79703;BME280;69172;52.352;5.006;2023-07-16T02:03:11;100732.19;;;16.74;68.54
79703;BME280;69172;52.352;5.006;2023-07-16T02:05:37;100731.19;;;16.70;68.87
79703;BME280;69172;52.352;5.006;2023-07-16T02:08:02;100726.00;;;16.70;69.00
79703;BME280;69172;52.352;5.006;2023-07-16T02:10:28;100726.00;;;16.70;69.46
79703;BME280;69172;52.352;5.006;2023-07-16T02:12:53;100726.69;;;16.63;69.61
79703;BME280;69172;52.352;5.006;2023-07-16T02:15:19;100724.13;;;16.66;69.49
79703;BME280;69172;52.352;5.006;2023-07-16T02:17:44;100723.13;;;16.61;69.51
79703;BME280;69172;52.352;5.006;2023-07-16T02:20:10;100719.66;;;16.60;70.02
79703;BME280;69172;52.352;5.006;2023-07-16T02:22:37;100729.91;;;16.56;69.67
79703;BME280;69172;52.352;5.006;2023-07-16T02:25:03;100732.50;;;16.56;70.07
79703;BME280;69172;52.352;5.006;2023-07-16T02:27:28;100726.25;;;16.51;70.04
79703;BME280;69172;52.352;5.006;2023-07-16T02:29:54;100730.78;;;16.56;70.13
79703;BME280;69172;52.352;5.006;2023-07-16T02:32:19;100723.13;;;16.61;69.50
79703;BME280;69172;52.352;5.006;2023-07-16T02:34:45;100718.09;;;16.65;69.07
79703;BME280;69172;52.352;5.006;2023-07-16T02:37:10;100720.59;;;16.62;69.35
79703;BME280;69172;52.352;5.006;2023-07-16T02:39:35;100706.81;;;16.65;68.91
79703;BME280;69172;52.352;5.006;2023-07-16T02:42:01;100712.94;;;16.67;69.00
79703;BME280;69172;52.352;5.006;2023-07-16T02:44:26;100714.59;;;16.65;68.80
79703;BME280;69172;52.352;5.006;2023-07-16T02:46:52;100716.41;;;16.67;68.81
79703;BME280;69172;52.352;5.006;2023-07-16T02:49:17;100712.94;;;16.67;68.91
79703;BME280;69172;52.352;5.006;2023-07-16T02:51:43;100718.03;;;16.64;69.50
79703;BME280;69172;52.352;5.006;2023-07-16T02:54:08;100721.31;;;16.58;69.79
79703;BME280;69172;52.352;5.006;2023-07-16T02:56:34;100734.31;;;16.58;69.73
79703;BME280;69172;52.352;5.006;2023-07-16T02:58:59;100727.31;;;16.56;70.14
79703;BME280;69172;52.352;5.006;2023-07-16T03:01:25;100725.56;;;16.55;70.34
79703;BME280;69172;52.352;5.006;2023-07-16T03:03:50;100731.63;;;16.55;70.85
79703;BME280;69172;52.352;5.006;2023-07-16T03:06:16;100736.00;;;16.56;70.24
79703;BME280;69172;52.352;5.006;2023-07-16T03:08:41;100734.31;;;16.58;70.26
79703;BME280;69172;52.352;5.006;2023-07-16T03:11:06;100736.00;;;16.56;70.91
79703;BME280;69172;52.352;5.006;2023-07-16T03:13:33;100745.63;;;16.60;70.62
79703;BME280;69172;52.352;5.006;2023-07-16T03:15:58;100745.78;;;16.65;70.50
79703;BME280;69172;52.352;5.006;2023-07-16T03:18:28;100740.66;;;16.68;69.94
79703;BME280;69172;52.352;5.006;2023-07-16T03:20:54;100745.16;;;16.74;69.87
79703;BME280;69172;52.352;5.006;2023-07-16T03:23:19;100743.66;;;16.82;69.42
79703;BME280;69172;52.352;5.006;2023-07-16T03:25:44;100749.69;;;16.81;69.37
79703;BME280;69172;52.352;5.006;2023-07-16T03:28:10;100740.88;;;16.76;69.72
79703;BME280;69172;52.352;5.006;2023-07-16T03:30:35;100749.50;;;16.75;69.66
79703;BME280;69172;52.352;5.006;2023-07-16T03:33:03;100757.38;;;16.78;69.81
79703;BME280;69172;52.352;5.006;2023-07-16T03:35:28;100753.09;;;16.80;69.81
79703;BME280;69172;52.352;5.006;2023-07-16T03:37:54;100744.50;;;16.81;70.26
79703;BME280;69172;52.352;5.006;2023-07-16T03:40:24;100750.59;;;16.83;70.68
79703;BME280;69172;52.352;5.006;2023-07-16T03:42:50;100757.47;;;16.81;70.61
79703;BME280;69172;52.352;5.006;2023-07-16T03:45:15;100767.06;;;16.83;70.74
79703;BME280;69172;52.352;5.006;2023-07-16T03:47:40;100766.94;;;16.79;71.10
79703;BME280;69172;52.352;5.006;2023-07-16T03:50:06;100764.53;;;16.85;70.91
79703;BME280;69172;52.352;5.006;2023-07-16T03:52:32;100766.94;;;16.79;71.55
79703;BME280;69172;52.352;5.006;2023-07-16T03:54:57;100766.78;;;16.74;71.67
79703;BME280;69172;52.352;5.006;2023-07-16T03:57:23;100780.53;;;16.70;71.68
79703;BME280;69172;52.352;5.006;2023-07-16T03:59:48;100775.13;;;16.62;72.01
79703;BME280;69172;52.352;5.006;2023-07-16T04:02:13;100784.63;;;16.62;71.82
79703;BME280;69172;52.352;5.006;2023-07-16T04:04:39;100793.66;;;16.75;71.83
79703;BME280;69172;52.352;5.006;2023-07-16T04:07:05;100794.25;;;16.66;71.50
79703;BME280;69172;52.352;5.006;2023-07-16T04:09:30;100794.25;;;16.66;71.62
79703;BME280;69172;52.352;5.006;2023-07-16T04:11:55;100800.31;;;16.65;71.71
79703;BME280;69172;52.352;5.006;2023-07-16T04:14:21;100800.31;;;16.65;72.50
79703;BME280;69172;52.352;5.006;2023-07-16T04:16:46;100804.41;;;16.58;71.95
79703;BME280;69172;52.352;5.006;2023-07-16T04:19:12;100802.03;;;16.66;72.00
79703;BME280;69172;52.352;5.006;2023-07-16T04:21:37;100801.28;;;16.69;71.94
79703;BME280;69172;52.352;5.006;2023-07-16T04:24:04;100802.09;;;16.67;71.90
79703;BME280;69172;52.352;5.006;2023-07-16T04:26:30;100803.78;;;16.65;72.13
79703;BME280;69172;52.352;5.006;2023-07-16T04:28:56;100805.63;;;16.70;72.15
79703;BME280;69172;52.352;5.006;2023-07-16T04:31:22;100795.56;;;16.80;71.70
79703;BME280;69172;52.352;5.006;2023-07-16T04:33:47;100794.03;;;16.87;70.82
79703;BME280;69172;52.352;5.006;2023-07-16T04:36:15;100791.44;;;16.87;71.28
79703;BME280;69172;52.352;5.006;2023-07-16T04:38:40;100807.81;;;16.84;71.28
79703;BME280;69172;52.352;5.006;2023-07-16T04:41:05;100802.22;;;17.00;70.76
79703;BME280;69172;52.352;5.006;2023-07-16T04:43:31;100805.03;;;17.08;70.57
79703;BME280;69172;52.352;5.006;2023-07-16T04:45:56;100809.34;;;17.07;70.57
79703;BME280;69172;52.352;5.006;2023-07-16T04:48:21;100806.13;;;17.14;70.43
79703;BME280;69172;52.352;5.006;2023-07-16T04:50:47;100819.25;;;17.20;71.08
79703;BME280;69172;52.352;5.006;2023-07-16T04:53:12;100803.75;;;17.23;70.10
79703;BME280;69172;52.352;5.006;2023-07-16T04:55:38;100814.84;;;17.18;69.70
79703;BME280;69172;52.352;5.006;2023-07-16T04:58:05;100819.75;;;17.07;70.05
79703;BME280;69172;52.352;5.006;2023-07-16T05:00:31;100816.34;;;17.10;69.83
79703;BME280;69172;52.352;5.006;2023-07-16T05:02:57;100821.53;;;17.08;69.66
79703;BME280;69172;52.352;5.006;2023-07-16T05:05:23;100817.25;;;17.10;69.20
79703;BME280;69172;52.352;5.006;2023-07-16T05:07:48;100820.34;;;17.28;68.65
79703;BME280;69172;52.352;5.006;2023-07-16T05:10:14;100818.56;;;17.26;68.18
79703;BME280;69172;52.352;5.006;2023-07-16T05:12:39;100824.84;;;17.34;67.69
79703;BME280;69172;52.352;5.006;2023-07-16T05:15:05;100814.88;;;17.49;67.36
79703;BME280;69172;52.352;5.006;2023-07-16T05:17:30;100827.72;;;17.43;67.08
79703;BME280;69172;52.352;5.006;2023-07-16T05:19:56;100827.31;;;17.28;68.17
79703;BME280;69172;52.352;5.006;2023-07-16T05:22:21;100819.97;;;17.45;67.92
79703;BME280;69172;52.352;5.006;2023-07-16T05:24:46;100830.31;;;17.43;67.95
79703;BME280;69172;52.352;5.006;2023-07-16T05:27:12;100833.88;;;17.47;68.08
79703;BME280;69172;52.352;5.006;2023-07-16T05:29:37;100836.94;;;17.32;68.29
79703;BME280;69172;52.352;5.006;2023-07-16T05:32:04;100839.78;;;17.41;67.81
79703;BME280;69172;52.352;5.006;2023-07-16T05:34:29;100830.84;;;17.32;67.41
79703;BME280;69172;52.352;5.006;2023-07-16T05:36:55;100826.63;;;17.35;67.39
79703;BME280;69172;52.352;5.006;2023-07-16T05:39:21;100834.25;;;17.29;67.55
79703;BME280;69172;52.352;5.006;2023-07-16T05:41:47;100842.94;;;17.30;66.89
79703;BME280;69172;52.352;5.006;2023-07-16T05:44:12;100846.59;;;17.36;66.32
79703;BME280;69172;52.352;5.006;2023-07-16T05:46:38;100854.94;;;17.54;66.31
79703;BME280;69172;52.352;5.006;2023-07-16T05:49:03;100842.31;;;17.69;65.20
79703;BME280;69172;52.352;5.006;2023-07-16T05:51:28;100843.00;;;17.61;64.83
79703;BME280;69172;52.352;5.006;2023-07-16T05:53:54;100840.69;;;17.73;65.22
79703;BME280;69172;52.352;5.006;2023-07-16T05:56:19;100850.38;;;17.77;64.86
79703;BME280;69172;52.352;5.006;2023-07-16T05:58:44;100853.53;;;17.67;64.36
79703;BME280;69172;52.352;5.006;2023-07-16T06:01:10;100861.25;;;17.64;64.78
79703;BME280;69172;52.352;5.006;2023-07-16T06:03:35;100864.09;;;17.71;64.37
79703;BME280;69172;52.352;5.006;2023-07-16T06:06:00;100859.78;;;17.73;63.89
79703;BME280;69172;52.352;5.006;2023-07-16T06:08:26;100866.19;;;17.86;63.85
79703;BME280;69172;52.352;5.006;2023-07-16T06:10:51;100854.50;;;17.70;63.76
79703;BME280;69172;52.352;5.006;2023-07-16T06:13:17;100871.53;;;17.91;63.47
79703;BME280;69172;52.352;5.006;2023-07-16T06:15:43;100877.84;;;17.99;63.94
79703;BME280;69172;52.352;5.006;2023-07-16T06:18:09;100868.88;;;17.89;63.61
79703;BME280;69172;52.352;5.006;2023-07-16T06:20:34;100862.59;;;17.81;64.32
79703;BME280;69172;52.352;5.006;2023-07-16T06:23:00;100873.00;;;17.81;64.48
79703;BME280;69172;52.352;5.006;2023-07-16T06:25:26;100878.56;;;17.95;64.82
79703;BME280;69172;52.352;5.006;2023-07-16T06:27:51;100883.97;;;18.02;64.75
79703;BME280;69172;52.352;5.006;2023-07-16T06:30:16;100887.56;;;18.06;64.87
79703;BME280;69172;52.352;5.006;2023-07-16T06:32:42;100891.66;;;17.96;64.34
79703;BME280;69172;52.352;5.006;2023-07-16T06:35:08;100898.97;;;18.11;64.69
79703;BME280;69172;52.352;5.006;2023-07-16T06:37:34;100899.59;;;18.02;64.79
79703;BME280;69172;52.352;5.006;2023-07-16T06:39:59;100904.41;;;18.20;65.00
79703;BME280;69172;52.352;5.006;2023-07-16T06:42:25;100906.16;;;18.21;64.31
79703;BME280;69172;52.352;5.006;2023-07-16T06:44:50;100889.94;;;18.31;63.20
79703;BME280;69172;52.352;5.006;2023-07-16T06:47:15;100909.78;;;18.26;63.35
79703;BME280;69172;52.352;5.006;2023-07-16T06:49:41;100915.03;;;18.27;62.65
79703;BME280;69172;52.352;5.006;2023-07-16T06:52:06;100907.78;;;18.49;61.95
79703;BME280;69172;52.352;5.006;2023-07-16T06:54:32;100913.69;;;18.43;61.97
79703;BME280;69172;52.352;5.006;2023-07-16T06:56:58;100920.63;;;18.42;61.54
79703;BME280;69172;52.352;5.006;2023-07-16T06:59:23;100915.03;;;18.62;61.20
79703;BME280;69172;52.352;5.006;2023-07-16T07:01:48;100913.72;;;18.79;60.77
79703;BME280;69172;52.352;5.006;2023-07-16T07:04:14;100922.16;;;19.05;59.75
79703;BME280;69172;52.352;5.006;2023-07-16T07:06:39;100926.94;;;18.86;59.70
79703;BME280;69172;52.352;5.006;2023-07-16T07:09:05;100926.94;;;18.51;60.64
79703;BME280;69172;52.352;5.006;2023-07-16T07:11:31;100935.31;;;18.40;61.38
79703;BME280;69172;52.352;5.006;2023-07-16T07:13:56;100934.38;;;18.37;61.90
79703;BME280;69172;52.352;5.006;2023-07-16T07:16:23;100934.16;;;18.62;62.07
79703;BME280;69172;52.352;5.006;2023-07-16T07:18:50;100930.00;;;18.36;62.40
79703;BME280;69172;52.352;5.006;2023-07-16T07:21:15;100944.47;;;18.25;63.22
79703;BME280;69172;52.352;5.006;2023-07-16T07:23:41;100929.75;;;18.27;63.81
79703;BME280;69172;52.352;5.006;2023-07-16T07:26:07;100944.38;;;18.22;63.86
79703;BME280;69172;52.352;5.006;2023-07-16T07:28:33;100940.09;;;18.24;63.94
79703;BME280;69172;52.352;5.006;2023-07-16T07:30:59;100949.13;;;18.36;63.61
79703;BME280;69172;52.352;5.006;2023-07-16T07:33:24;100959.75;;;18.45;63.61
79703;BME280;69172;52.352;5.006;2023-07-16T07:35:53;100948.91;;;18.62;63.48
79703;BME280;69172;52.352;5.006;2023-07-16T07:38:19;100954.75;;;18.86;62.01
79703;BME280;69172;52.352;5.006;2023-07-16T07:40:44;100960.00;;;18.89;62.18
79703;BME280;69172;52.352;5.006;2023-07-16T07:43:10;100956.47;;;18.87;62.64
79703;BME280;69172;52.352;5.006;2023-07-16T07:45:35;100975.03;;;18.65;62.57
79703;BME280;69172;52.352;5.006;2023-07-16T07:48:00;100981.56;;;18.82;62.64
79703;BME280;69172;52.352;5.006;2023-07-16T07:50:26;100983.63;;;18.61;62.31
79703;BME280;69172;52.352;5.006;2023-07-16T07:52:51;100974.09;;;18.61;62.87
79703;BME280;69172;52.352;5.006;2023-07-16T07:55:17;100966.94;;;18.54;62.17
79703;BME280;69172;52.352;5.006;2023-07-16T07:57:42;100988.75;;;18.56;63.24
79703;BME280;69172;52.352;5.006;2023-07-16T08:00:08;100979.69;;;18.76;61.98
79703;BME280;69172;52.352;5.006;2023-07-16T08:02:38;100988.03;;;18.63;62.24
79703;BME280;69172;52.352;5.006;2023-07-16T08:05:03;100978.59;;;18.68;61.88
79703;BME280;69172;52.352;5.006;2023-07-16T08:07:29;100993.69;;;18.80;61.71
79703;BME280;69172;52.352;5.006;2023-07-16T08:09:55;100989.41;;;18.83;61.12
79703;BME280;69172;52.352;5.006;2023-07-16T08:12:21;100987.00;;;18.91;60.64
79703;BME280;69172;52.352;5.006;2023-07-16T08:14:47;100995.19;;;19.06;60.25
79703;BME280;69172;52.352;5.006;2023-07-16T08:17:13;100984.59;;;19.00;61.18
79703;BME280;69172;52.352;5.006;2023-07-16T08:19:38;100982.59;;;19.26;60.27
79703;BME280;69172;52.352;5.006;2023-07-16T08:22:04;100999.56;;;19.43;60.19
79703;BME280;69172;52.352;5.006;2023-07-16T08:24:30;101015.31;;;19.12;60.29
79703;BME280;69172;52.352;5.006;2023-07-16T08:26:55;100997.75;;;19.05;60.36
79703;BME280;69172;52.352;5.006;2023-07-16T08:29:20;101005.84;;;19.17;60.66
79703;BME280;69172;52.352;5.006;2023-07-16T08:31:46;100994.16;;;18.99;61.12
79703;BME280;69172;52.352;5.006;2023-07-16T08:34:11;100992.50;;;19.39;60.54
79703;BME280;69172;52.352;5.006;2023-07-16T08:36:37;101002.50;;;19.22;60.04
79703;BME280;69172;52.352;5.006;2023-07-16T08:39:05;101007.38;;;19.07;60.60
79703;BME280;69172;52.352;5.006;2023-07-16T08:41:31;101016.44;;;19.23;60.55
79703;BME280;69172;52.352;5.006;2023-07-16T08:43:56;101010.31;;;19.21;61.48
79703;BME280;69172;52.352;5.006;2023-07-16T08:46:23;101011.31;;;19.27;60.67
79703;BME280;69172;52.352;5.006;2023-07-16T08:48:50;101020.59;;;19.50;59.37
79703;BME280;69172;52.352;5.006;2023-07-16T08:51:16;101020.66;;;19.18;60.81
79703;BME280;69172;52.352;5.006;2023-07-16T08:53:42;101032.06;;;19.21;60.47
79703;BME280;69172;52.352;5.006;2023-07-16T08:56:08;101025.72;;;19.10;61.52
79703;BME280;69172;52.352;5.006;2023-07-16T08:58:33;101033.97;;;19.28;60.83
79703;BME280;69172;52.352;5.006;2023-07-16T09:01:00;101028.09;;;19.02;61.58
79703;BME280;69172;52.352;5.006;2023-07-16T09:03:26;101036.19;;;18.79;62.77
79703;BME280;69172;52.352;5.006;2023-07-16T09:05:53;101044.13;;;19.18;61.92
79703;BME280;69172;52.352;5.006;2023-07-16T09:08:18;101051.38;;;19.29;61.11
79703;BME280;69172;52.352;5.006;2023-07-16T09:10:44;101042.59;;;19.26;60.80
79703;BME280;69172;52.352;5.006;2023-07-16T09:13:10;101041.03;;;19.34;59.18
79703;BME280;69172;52.352;5.006;2023-07-16T09:15:36;101039.72;;;19.15;59.56
79703;BME280;69172;52.352;5.006;2023-07-16T09:18:03;101050.25;;;19.18;59.63
79703;BME280;69172;52.352;5.006;2023-07-16T09:20:31;101050.94;;;19.45;58.92
79703;BME280;69172;52.352;5.006;2023-07-16T09:22:57;101042.16;;;19.43;58.95
79703;BME280;69172;52.352;5.006;2023-07-16T09:25:27;101068.22;;;19.08;60.54
79703;BME280;69172;52.352;5.006;2023-07-16T09:27:53;101062.47;;;19.21;59.86
79703;BME280;69172;52.352;5.006;2023-07-16T09:30:18;101053.31;;;19.38;59.33
79703;BME280;69172;52.352;5.006;2023-07-16T09:32:44;101057.75;;;19.40;59.60
79703;BME280;69172;52.352;5.006;2023-07-16T09:35:13;101061.34;;;19.45;59.84
79703;BME280;69172;52.352;5.006;2023-07-16T09:37:39;101068.38;;;19.48;59.91
79703;BME280;69172;52.352;5.006;2023-07-16T09:40:09;101059.88;;;19.56;59.58
79703;BME280;69172;52.352;5.006;2023-07-16T09:42:42;101057.59;;;19.70;59.52
79703;BME280;69172;52.352;5.006;2023-07-16T09:45:19;101065.84;;;19.51;59.69
79703;BME280;69172;52.352;5.006;2023-07-16T09:47:45;101074.81;;;19.64;59.64
79703;BME280;69172;52.352;5.006;2023-07-16T09:50:11;101088.38;;;19.49;60.00
79703;BME280;69172;52.352;5.006;2023-07-16T09:52:36;101072.94;;;19.56;60.14
79703;BME280;69172;52.352;5.006;2023-07-16T09:55:03;101086.03;;;19.25;60.13
79703;BME280;69172;52.352;5.006;2023-07-16T09:57:32;101083.53;;;19.30;60.61
79703;BME280;69172;52.352;5.006;2023-07-16T10:00:02;101096.09;;;19.43;60.77
79703;BME280;69172;52.352;5.006;2023-07-16T10:02:35;101099.06;;;19.59;60.34
79703;BME280;69172;52.352;5.006;2023-07-16T10:05:25;101109.88;;;19.39;61.20
79703;BME280;69172;52.352;5.006;2023-07-16T10:07:56;101124.78;;;19.43;60.04
79703;BME280;69172;52.352;5.006;2023-07-16T10:10:48;101114.06;;;19.34;58.95
79703;BME280;69172;52.352;5.006;2023-07-16T10:13:15;101110.25;;;19.54;59.03
79703;BME280;69172;52.352;5.006;2023-07-16T10:15:56;101121.84;;;19.32;59.50
79703;BME280;69172;52.352;5.006;2023-07-16T10:18:31;101118.31;;;19.30;59.91
79703;BME280;69172;52.352;5.006;2023-07-16T10:21:07;101128.69;;;19.27;59.78
79703;BME280;69172;52.352;5.006;2023-07-16T10:23:40;101123.69;;;19.36;59.74
79703;BME280;69172;52.352;5.006;2023-07-16T10:26:07;101130.13;;;19.49;59.09
79703;BME280;69172;52.352;5.006;2023-07-16T10:28:35;101135.78;;;19.33;60.12
79703;BME280;69172;52.352;5.006;2023-07-16T10:31:01;101148.25;;;19.43;59.77
79703;BME280;69172;52.352;5.006;2023-07-16T10:33:26;101140.97;;;19.66;59.01
79703;BME280;69172;52.352;5.006;2023-07-16T10:35:51;101137.91;;;19.83;59.03
79703;BME280;69172;52.352;5.006;2023-07-16T10:38:17;101129.28;;;19.87;58.94
79703;BME280;69172;52.352;5.006;2023-07-16T10:40:44;101134.78;;;19.99;58.33
79703;BME280;69172;52.352;5.006;2023-07-16T10:43:10;101135.00;;;19.71;57.60
79703;BME280;69172;52.352;5.006;2023-07-16T10:45:36;101128.72;;;19.63;58.52
79703;BME280;69172;52.352;5.006;2023-07-16T10:48:02;101143.63;;;19.67;58.93
79703;BME280;69172;52.352;5.006;2023-07-16T10:50:27;101146.91;;;19.60;59.66
79703;BME280;69172;52.352;5.006;2023-07-16T10:52:54;101142.47;;;19.56;58.34
79703;BME280;69172;52.352;5.006;2023-07-16T10:55:20;101146.41;;;19.75;58.83
79703;BME280;69172;52.352;5.006;2023-07-16T10:57:49;101145.91;;;19.91;58.81
79703;BME280;69172;52.352;5.006;2023-07-16T11:00:16;101147.56;;;19.87;58.21
79703;BME280;69172;52.352;5.006;2023-07-16T11:02:43;101141.22;;;20.13;57.80
79703;BME280;69172;52.352;5.006;2023-07-16T11:05:15;101143.84;;;20.54;56.06
79703;BME280;69172;52.352;5.006;2023-07-16T11:07:48;101122.44;;;20.74;53.43
79703;BME280;69172;52.352;5.006;2023-07-16T11:10:17;101145.47;;;20.92;50.23
79703;BME280;69172;52.352;5.006;2023-07-16T11:12:43;101145.53;;;20.95;49.30
79703;BME280;69172;52.352;5.006;2023-07-16T11:15:10;101148.84;;;20.87;48.49
79703;BME280;69172;52.352;5.006;2023-07-16T11:17:38;101159.94;;;20.76;49.49
79703;BME280;69172;52.352;5.006;2023-07-16T11:20:07;101162.59;;;20.78;49.73
79703;BME280;69172;52.352;5.006;2023-07-16T11:22:33;101155.94;;;20.94;49.71
79703;BME280;69172;52.352;5.006;2023-07-16T11:25:01;101177.19;;;21.10;49.79
79703;BME280;69172;52.352;5.006;2023-07-16T11:27:31;101179.06;;;20.74;50.68
79703;BME280;69172;52.352;5.006;2023-07-16T11:29:58;101173.09;;;20.79;50.16
79703;BME280;69172;52.352;5.006;2023-07-16T11:32:29;101165.56;;;20.53;51.22
79703;BME280;69172;52.352;5.006;2023-07-16T11:34:55;101171.97;;;20.65;49.94
79703;BME280;69172;52.352;5.006;2023-07-16T11:37:24;101164.78;;;21.00;47.88
79703;BME280;69172;52.352;5.006;2023-07-16T11:39:50;101176.94;;;20.98;47.72
79703;BME280;69172;52.352;5.006;2023-07-16T11:42:32;101208.34;;;21.00;47.85
79703;BME280;69172;52.352;5.006;2023-07-16T11:44:59;101182.56;;;21.18;47.83
79703;BME280;69172;52.352;5.006;2023-07-16T11:47:25;101207.06;;;21.21;47.83
79703;BME280;69172;52.352;5.006;2023-07-16T11:49:52;101193.19;;;20.82;48.27
79703;BME280;69172;52.352;5.006;2023-07-16T11:52:22;101209.03;;;20.90;48.51
79703;BME280;69172;52.352;5.006;2023-07-16T11:54:48;101200.09;;;20.78;49.12
79703;BME280;69172;52.352;5.006;2023-07-16T11:57:20;101205.44;;;20.85;48.04
79703;BME280;69172;52.352;5.006;2023-07-16T11:59:52;101196.25;;;21.05;47.16
79703;BME280;69172;52.352;5.006;2023-07-16T12:02:17;101189.03;;;20.93;46.94
79703;BME280;69172;52.352;5.006;2023-07-16T12:04:43;101195.69;;;21.19;46.67
79703;BME280;69172;52.352;5.006;2023-07-16T12:07:09;101197.50;;;21.23;47.27
79703;BME280;69172;52.352;5.006;2023-07-16T12:09:35;101195.34;;;21.04;46.92
79703;BME280;69172;52.352;5.006;2023-07-16T12:12:04;101215.25;;;20.96;46.86
79703;BME280;69172;52.352;5.006;2023-07-16T12:14:30;101194.66;;;21.11;45.95
79703;BME280;69172;52.352;5.006;2023-07-16T12:16:56;101200.44;;;20.95;45.01
79703;BME280;69172;52.352;5.006;2023-07-16T12:19:22;101214.06;;;20.81;44.82
79703;BME280;69172;52.352;5.006;2023-07-16T12:21:47;101213.88;;;20.71;44.41
79703;BME280;69172;52.352;5.006;2023-07-16T12:24:13;101228.03;;;20.81;44.07
79703;BME280;69172;52.352;5.006;2023-07-16T12:26:38;101207.69;;;21.10;43.09
79703;BME280;69172;52.352;5.006;2023-07-16T12:29:04;101215.16;;;21.35;42.81
79703;BME280;69172;52.352;5.006;2023-07-16T12:31:32;101224.84;;;21.41;43.35
79703;BME280;69172;52.352;5.006;2023-07-16T12:33:59;101213.13;;;21.19;44.40
79703;BME280;69172;52.352;5.006;2023-07-16T12:36:26;101215.13;;;21.33;44.96
79703;BME280;69172;52.352;5.006;2023-07-16T12:38:54;101219.88;;;21.56;43.94
79703;BME280;69172;52.352;5.006;2023-07-16T12:41:21;101229.25;;;21.43;43.01
79703;BME280;69172;52.352;5.006;2023-07-16T12:43:47;101229.97;;;21.33;42.95
79703;BME280;69172;52.352;5.006;2023-07-16T12:46:12;101221.66;;;21.57;42.73
79703;BME280;69172;52.352;5.006;2023-07-16T12:48:38;101230.88;;;21.36;43.54
79703;BME280;69172;52.352;5.006;2023-07-16T12:51:03;101231.88;;;21.45;44.27
79703;BME280;69172;52.352;5.006;2023-07-16T12:53:28;101234.56;;;21.46;44.74